HFD weather

Hartford Brainard Airport
Hartford, Connecticut, United States

Public forecast

Using degrees Fahrenheit for public forecast. Weather courtesy of forecast.io.

METAR (pilot weather report)

Retrieved 2019/04/23 21:53 UTC (33 minutes ago):

KHFD 232153Z 16010KT 10SM CLR 21/09 A2982 RMK AO2 SLP096 T02060094

TAF (pilot weather forecast)

Forecast is more than 12 hours old.

Closest forecast is Kaman Aerospace Corp Heliport, 7.9 nm (14.5 km) NNW. Retrieved 2017/05/24 06:18 UTC (2 years ago):

TAF HTZA 240500Z 2406/2506 22010KT 9999 BKN016 KVA1683 240550 GG HAABYMYX 240535 VTBBYPYX 240522 FTAE33 VTBB 240500 TAF VLLB 240500Z 2406/2506 27004KT 9999 SCT020 SCT05 240500Z 2406/2506 18004KT 9000 SCT020 BKN100 TEMPO 2410/2413 8000 TS SCT016 FEW023CB BKN100